Flight Track Log - Related Links

Times and Time Zones

All times are in EDT time to prevent confusion due to time zone crossing. See the UAL4401 flight status page for this flight to view local times or setup timezone preferences in your user account.


Time Position Orientation Groundspeed Altitude Reporting Facility
EDT Latitude Longitude Course Direction KTS MPH feet Rate Location/Type
Sun 08:49:48 PM 29.9575 -95.3442 90° East 168 193 600  Level Houston Center
Sun 08:50:50 PM 29.9342 -95.2939 118° Southeast 195 224 2,300 1,571 Climbing Houston Center
Sun 08:51:12 PM 29.9303 -95.2786 106° East 188 216 2,800 1,446 Climbing Houston Center
Sun 08:52:13 PM 29.9219 -95.2019 97° East 237 273 4,300 1,854 Climbing Houston Center
Sun 08:53:00 PM 30.2503 -94.9194 97° East  Level Estimated
Sun 08:53:15 PM 29.9242 -95.1181 88° East 260 299 6,600  Level Houston Center
Sun 08:54:00 PM 30.1798 -94.8174 129° Southeast  Level FlightAware Approximate
Sun 08:54:16 PM 29.9339 -95.0325 83° East 267 307 9,000  Level Houston Center
Sun 08:55:00 PM 30.2466 -94.7120 90° East  Level Estimated
Sun 08:55:17 PM 29.9408 -94.9436 85° East 275 316 10,400  Level Houston Center
Sun 08:56:18 PM 29.9261 -94.8408 99° East 315 362 11,300 1,268 Climbing Houston Center
Sun 08:57:20 PM 29.9139 -94.7328 97° East 333 383 13,000 1,463 Climbing Houston Center
Sun 08:58:21 PM 29.9014 -94.6242 98° East 340 391 14,300 1,426 Climbing Houston Center
Sun 08:59:22 PM 29.8842 -94.4906 98° East 348 400 15,900 1,561 Climbing Houston Center
Sun 09:00:24 PM 29.8697 -94.3789 98° East 351 404 17,500 1,317 Climbing Houston Center
Sun 09:01:25 PM 29.8597 -94.2667 96° East 352 405 18,600 1,033 Climbing Houston Center
Sun 09:02:26 PM 29.8575 -94.1628 91° East 355 409 19,600 984 Climbing Houston Center
Sun 09:03:27 PM 29.8553 -94.0461 91° East 363 418 20,600 1,024 Climbing Houston Center
Sun 09:04:29 PM 29.8794 -93.9072 79° East 367 422 21,700 1,024 Climbing Houston Center
Sun 09:05:30 PM 29.9006 -93.7889 78° East 378 435 22,700 934 Climbing Houston Center
Sun 09:06:31 PM 29.9281 -93.6728 75° East 378 435 23,600 885 Climbing Houston Center
Sun 09:07:32 PM 29.9569 -93.5581 74° East 376 433 24,500 934 Climbing Houston Center
Sun 09:08:33 PM 29.9853 -93.4414 74° East 380 437 25,500 976 Climbing Houston Center
Sun 09:09:35 PM 30.0136 -93.3281 74° East 375 432 26,500 927 Climbing Houston Center
Sun 09:10:36 PM 30.0414 -93.2147 74° East 371 427 27,400 934 Climbing Houston Center
Sun 09:11:37 PM 30.0694 -93.1025 74° East 368 423 28,400 1,033 Climbing Houston Center
Sun 09:12:38 PM 30.1028 -92.9694 74° East 362 417 29,500 984 Climbing Houston Center
Sun 09:13:39 PM 30.1297 -92.8614 74° East 355 409 30,400 738 Climbing Houston Center
Sun 09:14:40 PM 30.1558 -92.7517 75° East 355 409 31,000 541 Climbing Houston Center
Sun 09:15:41 PM 30.1836 -92.6403 74° East 361 415 31,500 689 Climbing Houston Center
Sun 09:16:42 PM 30.2106 -92.5281 74° East 365 420 32,400 829 Climbing Houston Center
Sun 09:17:44 PM 30.2383 -92.4172 74° East 362 417 33,200 634 Climbing Houston Center
Sun 09:18:45 PM 30.2658 -92.3031 74° East 359 413 33,700 492 Climbing Houston Center
Sun 09:19:46 PM 30.2914 -92.1900 75° East 365 420 34,200 590 Climbing Houston Center
Sun 09:20:47 PM 30.3206 -92.0758 73° East 369 425 34,900 393 Climbing Houston Center
Sun 09:21:48 PM 30.3469 -91.9614 75° East 371 427 35,000 49 Climbing Houston Center
Sun 09:22:49 PM 30.3814 -91.8153 75° East 391 450 35,000  Level Houston Center
Sun 09:23:50 PM 30.4083 -91.7031 74° East 407 468 35,000  Level Houston Center
Sun 09:24:51 PM 30.4397 -91.5733 74° East 418 481 35,000  Level Houston Center
Sun 09:25:52 PM 30.4714 -91.4392 75° East 431 496 35,000  Level Houston Center
Sun 09:26:53 PM 30.5036 -91.3036 75° East 436 502 35,000  Level Houston Center
Sun 09:27:54 PM 30.5417 -91.1389 75° East 441 507 35,000  Level Houston Center
Sun 09:28:55 PM 30.5808 -91.0064 71° East 435 501 35,000  Level Houston Center
Sun 09:29:56 PM 30.6300 -90.8783 66° East 435 501 35,000  Level Houston Center
Sun 09:30:57 PM 30.6778 -90.7483 67° East 436 502 35,000  Level Houston Center
Sun 09:31:58 PM 30.7267 -90.6183 66° East 438 504 35,000  Level Houston Center
Sun 09:32:59 PM 30.7742 -90.4889 67° East 436 502 35,000  Level Houston Center
Sun 09:34:00 PM 30.8242 -90.3575 66° East 440 506 35,000  Level Houston Center
Sun 09:35:01 PM 30.8711 -90.2258 67° East 440 506 35,000  Level Houston Center
Sun 09:36:02 PM 30.9197 -90.0947 67° East 440 506 35,000  Level Houston Center
Sun 09:37:03 PM 30.9669 -89.9639 67° East 436 502 35,000  Level Houston Center
Sun 09:38:03 PM 31.0139 -89.8331 67° East 437 503 35,000  Level Houston Center
Sun 09:39:04 PM 31.0619 -89.7033 67° East 435 501 35,000  Level Houston Center
Sun 09:40:06 PM 31.1083 -89.5733 67° East 434 499 35,000  Level Houston Center
Sun 09:41:06 PM 31.1553 -89.4425 67° East 436 502 35,000  Level Houston Center
Sun 09:42:07 PM 31.2025 -89.3086 68° East 443 510 35,000  Level Houston Center
Sun 09:43:08 PM 31.2561 -89.1589 67° East 448 516 35,000  Level Houston Center
Sun 09:44:08 PM 31.3044 -89.0247 67° East 448 516 35,000  Level Houston Center
Sun 09:45:09 PM 31.3519 -88.8892 68° East 449 517 35,000  Level Houston Center
Sun 09:46:10 PM 31.3997 -88.7517 68° East 454 522 35,000  Level Houston Center
Sun 09:47:11 PM 31.4486 -88.6147 67° East 453 521 35,000  Level Houston Center
Sun 09:48:12 PM 31.4961 -88.4764 68° East 455 524 35,000  Level Houston Center
Sun 09:49:12 PM 31.5453 -88.3381 67° East 457 526 35,000  Level Houston Center
Sun 09:50:13 PM 31.5933 -88.1983 68° East 458 527 35,000  Level Houston Center
Sun 09:51:14 PM 31.6425 -88.0567 68° East 465 535 35,000  Level Houston Center
Sun 09:52:15 PM 31.6917 -87.9111 68° East 466 536 35,000  Level Houston Center
Sun 09:53:15 PM 31.7486 -87.7797 63° Northeast 464 534 35,000  Level Houston Center
Sun 09:54:16 PM 31.8258 -87.6578 53° Northeast 464 534 35,000  Level Houston Center
Sun 09:55:17 PM 31.9011 -87.5333 55° Northeast 466 536 35,000  Level Houston Center
Sun 09:56:18 PM 31.9778 -87.4100 54° Northeast 467 537 35,000  Level Houston Center
Sun 09:57:19 PM 32.0519 -87.2842 55° Northeast 466 536 35,000  Level Houston Center
Sun 09:58:19 PM 32.1256 -87.1525 57° Northeast 467 537 35,000  Level Houston Center
Sun 09:59:21 PM 32.2158 -87.0117 53° Northeast 463 533 35,000  Level Atlanta Center
Sun 10:00:21 PM 32.2878 -86.8864 56° Northeast 463 533 35,000  Level Atlanta Center
Sun 10:01:21 PM 32.3658 -86.7586 54° Northeast 463 533 35,000  Level Atlanta Center
Sun 10:02:21 PM 32.4478 -86.6331 52° Northeast 469 540 35,000  Level Atlanta Center
Sun 10:03:21 PM 32.5194 -86.4997 57° Northeast 474 545 35,000  Level Atlanta Center
Sun 10:04:21 PM 32.5950 -86.3686 56° Northeast 474 545 35,000  Level Atlanta Center
Sun 10:05:21 PM 32.6725 -86.2400 54° Northeast 474 545 35,000  Level Atlanta Center
Sun 10:06:21 PM 32.7478 -86.1108 55° Northeast 479 551 35,000  Level Atlanta Center
Sun 10:07:21 PM 32.8208 -85.9817 56° Northeast 473 544 35,000  Level Atlanta Center
Sun 10:08:21 PM 32.8958 -85.8522 55° Northeast 473 544 35,000  Level Atlanta Center
Sun 10:09:21 PM 32.9731 -85.7175 56° Northeast 478 550 35,000  Level Atlanta Center
Sun 10:10:21 PM 33.0497 -85.5903 54° Northeast 478 550 35,000  Level Atlanta Center
Sun 10:11:21 PM 33.1094 -85.4822 57° Northeast 478 550 35,000  Level Atlanta Center
Sun 10:12:21 PM 33.1989 -85.3322 54° Northeast 467 537 35,000  Level Atlanta Center
Sun 10:13:21 PM 33.2753 -85.1992 55° Northeast 467 537 35,000  Level Atlanta Center
Sun 10:14:21 PM 33.3517 -85.0658 56° Northeast 477 549 35,000  Level Atlanta Center
Sun 10:15:21 PM 33.4258 -84.9350 56° Northeast 477 549 35,000  Level Atlanta Center
Sun 10:16:21 PM 33.4997 -84.8011 56° Northeast 482 555 35,000  Level Atlanta Center
Sun 10:17:21 PM 33.5756 -84.6672 56° Northeast 482 555 35,000  Level Atlanta Center
Sun 10:18:21 PM 33.6431 -84.5453 56° Northeast 483 556 35,000  Level Atlanta Center
Sun 10:19:21 PM 33.7228 -84.4011 56° Northeast 472 543 35,000  Level Atlanta Center
Sun 10:20:21 PM 33.7961 -84.2664 57° Northeast 472 543 35,000  Level Atlanta Center
Sun 10:21:21 PM 33.8714 -84.1314 56° Northeast 481 554 35,000  Level Atlanta Center
Sun 10:22:21 PM 33.9467 -83.9986 56° Northeast 481 554 35,000  Level Atlanta Center
Sun 10:23:21 PM 34.0194 -83.8633 57° Northeast 481 554 35,000  Level Atlanta Center
Sun 10:24:21 PM 34.0922 -83.7278 57° Northeast 481 554 35,000  Level Atlanta Center
Sun 10:25:21 PM 34.1669 -83.5969 55° Northeast 481 554 35,000  Level Atlanta Center
Sun 10:26:21 PM 34.2394 -83.4608 57° Northeast 481 554 35,000  Level Atlanta Center
Sun 10:27:21 PM 34.3036 -83.3372 58° Northeast 481 554 35,000  Level Atlanta Center
Sun 10:28:21 PM 34.3758 -83.2006 57° Northeast 488 562 35,000  Level Atlanta Center
Sun 10:29:21 PM 34.4500 -83.0664 56° Northeast 482 555 35,000  Level Atlanta Center
Sun 10:30:21 PM 34.5239 -82.9319 56° Northeast 482 555 35,000  Level Atlanta Center
Sun 10:31:21 PM 34.5978 -82.7997 56° Northeast 477 549 35,000  Level Atlanta Center
Sun 10:32:21 PM 34.6756 -82.6547 57° Northeast 477 549 35,000  Level Atlanta Center
Sun 10:33:21 PM 34.7469 -82.5169 58° Northeast 472 543 35,000  Level Atlanta Center
Sun 10:34:21 PM 34.8183 -82.3867 56° Northeast 465 535 35,000  Level Atlanta Center
Sun 10:35:21 PM 34.8894 -82.2511 57° Northeast 465 535 35,000  Level Atlanta Center
Sun 10:36:21 PM 34.9583 -82.1203 57° Northeast 465 535 35,000  Level Atlanta Center
Sun 10:37:21 PM 35.0292 -81.9842 58° Northeast 465 535 35,000  Level Atlanta Center
Sun 10:38:21 PM 35.1000 -81.8506 57° Northeast 459 528 35,000  Level Atlanta Center
Sun 10:39:21 PM 35.1706 -81.7139 58° Northeast 459 528 35,000  Level Atlanta Center
Sun 10:40:21 PM 35.2367 -81.5797 59° Northeast 464 534 35,000  Level Atlanta Center
Sun 10:41:21 PM 35.3069 -81.4428 58° Northeast 464 534 35,000  Level Atlanta Center
Sun 10:42:21 PM 35.3769 -81.3056 58° Northeast 464 534 35,000  Level Atlanta Center
Sun 10:43:21 PM 35.4489 -81.1681 57° Northeast 464 534 35,000  Level Atlanta Center
Sun 10:44:21 PM 35.5356 -81.0350 51° Northeast 482 555 35,000  Level Atlanta Center
Sun 10:45:21 PM 35.6200 -80.9092 50° Northeast 489 563 35,000 -350 Level Atlanta Center
Sun 10:46:21 PM 35.7042 -80.7808 51° Northeast 484 557 34,300 -698 Descending Atlanta Center
Sun 10:48:13 PM 35.8597 -80.5358 52° Northeast 478 550 33,000 -451 Descending Washington Center
Sun 10:49:14 PM 35.9422 -80.4103 51° Northeast 472 543 33,000  Level Washington Center
Sun 10:50:15 PM 36.0225 -80.2789 53° Northeast 472 543 33,000  Level Washington Center
Sun 10:51:14 PM 36.1025 -80.1553 51° Northeast 472 543 33,000  Level Washington Center
Sun 10:52:15 PM 36.1753 -80.0461 50° Northeast 472 543 33,000  Level Washington Center
Sun 10:53:14 PM 36.2553 -79.9194 52° Northeast 467 537 33,000  Level Washington Center
Sun 10:54:16 PM 36.3439 -79.7747 53° Northeast 477 549 33,000 -101 Level Washington Center
Sun 10:55:13 PM 36.4233 -79.6472 52° Northeast 483 556 32,800 -615 Descending Washington Center
Sun 10:56:13 PM 36.5050 -79.5144 53° Northeast 483 556 31,800 -942 Descending Washington Center
Sun 10:57:14 PM 36.5864 -79.3842 52° Northeast 478 550 30,900 -885 Descending Washington Center
Sun 10:58:15 PM 36.6589 -79.2661 53° Northeast 472 543 30,000 -934 Descending Washington Center
Sun 10:59:16 PM 36.7400 -79.1350 52° Northeast 472 543 29,000 -1,008 Descending Washington Center
Sun 11:00:14 PM 36.8211 -79.0039 52° Northeast 472 543 28,000 -1,077 Descending Washington Center
Sun 11:01:13 PM 36.9086 -78.8569 53° Northeast 472 543 26,900 -1,041 Descending Washington Center
Sun 11:02:15 PM 36.9892 -78.7278 52° Northeast 477 549 25,900 -942 Descending Washington Center
Sun 11:03:14 PM 37.0697 -78.5983 52° Northeast 472 543 25,000 -458 Descending Washington Center
Sun 11:04:13 PM 37.1394 -78.4811 53° Northeast 472 543 25,000  Level Washington Center
Sun 11:05:13 PM 37.2131 -78.3589 53° Northeast 462 532 25,000  Level Washington Center
Sun 11:06:13 PM 37.2847 -78.2414 53° Northeast 443 510 25,000  Level Washington Center
Sun 11:07:15 PM 37.3539 -78.1236 54° Northeast 422 486 25,000 -450 Level Washington Center
Sun 11:08:13 PM 37.4211 -78.0081 54° Northeast 412 474 24,100 -942 Descending Washington Center
Sun 11:09:16 PM 37.4900 -77.8953 52° Northeast 412 474 23,100 -992 Descending Washington Center
Sun 11:10:14 PM 37.5689 -77.8058 42° Northeast 399 459 22,100 -1,119 Descending Washington Center
Sun 11:11:14 PM 37.6681 -77.7483 25° Northeast 378 435 20,900 -1,650 Descending Washington Center
Sun 11:12:14 PM 37.7628 -77.6933 25° Northeast 378 435 18,800 -2,083 Descending Washington Center
Sun 11:13:15 PM 37.8514 -77.6406 25° Northeast 365 420 16,700 -2,218 Descending Washington Center
Sun 11:14:13 PM 37.9378 -77.5875 26° Northeast 354 407 14,400 -2,339 Descending Washington Center
Sun 11:15:13 PM 38.0219 -77.5397 24° Northeast 339 390 12,100 -2,066 Descending Washington Center
Sun 11:16:15 PM 38.1125 -77.4892 24° Northeast 333 383 10,200 -1,082 Descending Washington Center
Sun 11:17:15 PM 38.1861 -77.4461 25° Northeast 309 356 9,900 -550 Descending Washington Center
Sun 11:18:15 PM 38.2589 -77.4506 357° North 268 308 9,100 -900 Descending Washington Center
Sun 11:19:15 PM 38.3342 -77.4472 North 268 308 8,100 -1,210 Descending Washington Center
Sun 11:20:14 PM 38.4092 -77.4464 360° North 268 308 6,700 -1,424 Descending Washington Center
Sun 11:21:13 PM 38.4800 -77.4456 North 263 303 5,300 -1,160 Descending Washington Center
Sun 11:22:13 PM 38.5489 -77.4447 North 257 296 4,400 -650 Descending Washington Center
Sun 11:23:13 PM 38.6178 -77.4436 North 245 282 4,000 -222 Descending Washington Center
Sun 11:24:01 PM 38.6667 -77.4333 North 241 277 4,000 -56 Level Potomac TRACON
Sun 11:25:01 PM 38.7333 -77.4333 360° North 237 273 3,900 -474 Descending Potomac TRACON
Sun 11:25:55 PM 38.7833 -77.4333 360° North 230 265 3,100 -1,211 Descending Potomac TRACON
Sun 11:26:55 PM 38.8500 -77.4333 360° North 209 241 1,600 -1,048 Descending Potomac TRACON
Sun 11:28:01 PM 38.8833 -77.4333 360° North 154 177 900 -636 Descending Potomac TRACON

Login

Don't have an account? Register now (free) for customized features, flight alerts, and more!